Kasane, Botswana
Current Conditions -  °F | °C
As of 7:00 PM on Monday 20 Oct 2014 (Local Time) from FBKE Reporting Station
Few Clouds Few Clouds  
Wind Chill: 84°   Ceiling: Unl
Heat Index: 84°   Visibility: 6mi
Dew Point: 39°   Wind: 1mph
Humidity: 20%   Direction: NA
Pressure: 29.94"   Gusts: NA
Location:  17.81°S, 25.15°E
Report Text: FBKE 201700Z VRB01KT 9999 FEW030 29/04 Q1014
Loading
Personal Weather Stations






























Interactive Weather Map
Tropical Storm Tracking
New forecast layout! Learn more

10-Day Weather Forecast

Advertisements
Track Severe Weather on mobile